sensor_id;sensor_type;location;lat;lon;timestamp;temperature;humidity
15343;DHT22;7771;48.478;8.936;2023-08-21T00:00:58;24.90;99.90
15343;DHT22;7771;48.478;8.936;2023-08-21T00:03:26;24.80;99.90
15343;DHT22;7771;48.478;8.936;2023-08-21T00:05:54;24.80;99.90
15343;DHT22;7771;48.478;8.936;2023-08-21T00:08:22;24.80;99.90
15343;DHT22;7771;48.478;8.936;2023-08-21T00:10:49;24.80;99.90
15343;DHT22;7771;48.478;8.936;2023-08-21T00:13:16;24.80;99.90
15343;DHT22;7771;48.478;8.936;2023-08-21T00:18:13;24.80;99.90
15343;DHT22;7771;48.478;8.936;2023-08-21T00:20:40;24.70;99.90
15343;DHT22;7771;48.478;8.936;2023-08-21T00:23:07;24.70;99.90
15343;DHT22;7771;48.478;8.936;2023-08-21T00:28:02;24.60;99.90
15343;DHT22;7771;48.478;8.936;2023-08-21T00:30:29;24.60;99.90
15343;DHT22;7771;48.478;8.936;2023-08-21T00:32:55;24.60;99.90
15343;DHT22;7771;48.478;8.936;2023-08-21T00:35:23;24.60;99.90
15343;DHT22;7771;48.478;8.936;2023-08-21T00:37:49;24.60;99.90
15343;DHT22;7771;48.478;8.936;2023-08-21T00:40:16;24.50;99.90
15343;DHT22;7771;48.478;8.936;2023-08-21T00:45:11;24.50;99.90
15343;DHT22;7771;48.478;8.936;2023-08-21T00:47:38;24.50;99.90
15343;DHT22;7771;48.478;8.936;2023-08-21T00:50:06;24.50;99.90
15343;DHT22;7771;48.478;8.936;2023-08-21T00:52:34;24.50;99.90
15343;DHT22;7771;48.478;8.936;2023-08-21T00:55:02;24.40;99.90
15343;DHT22;7771;48.478;8.936;2023-08-21T00:57:30;24.40;99.90
15343;DHT22;7771;48.478;8.936;2023-08-21T00:59:56;24.40;99.90
15343;DHT22;7771;48.478;8.936;2023-08-21T01:02:23;24.30;99.90
15343;DHT22;7771;48.478;8.936;2023-08-21T01:07:18;24.30;99.90
15343;DHT22;7771;48.478;8.936;2023-08-21T01:10:05;24.30;99.90
15343;DHT22;7771;48.478;8.936;2023-08-21T01:15:17;24.20;99.90
15343;DHT22;7771;48.478;8.936;2023-08-21T01:17:45;24.10;99.90
15343;DHT22;7771;48.478;8.936;2023-08-21T01:20:11;24.10;99.90
15343;DHT22;7771;48.478;8.936;2023-08-21T01:22:39;24.10;99.90
15343;DHT22;7771;48.478;8.936;2023-08-21T01:25:06;24.10;99.90
15343;DHT22;7771;48.478;8.936;2023-08-21T01:27:34;24.10;99.90
15343;DHT22;7771;48.478;8.936;2023-08-21T01:30:02;24.10;99.90
15343;DHT22;7771;48.478;8.936;2023-08-21T01:32:48;24.10;99.90
15343;DHT22;7771;48.478;8.936;2023-08-21T01:35:12;24.00;99.90
15343;DHT22;7771;48.478;8.936;2023-08-21T01:37:40;24.00;99.90
15343;DHT22;7771;48.478;8.936;2023-08-21T01:40:08;24.00;99.90
15343;DHT22;7771;48.478;8.936;2023-08-21T01:42:35;23.90;99.90
15343;DHT22;7771;48.478;8.936;2023-08-21T01:45:02;23.90;99.90
15343;DHT22;7771;48.478;8.936;2023-08-21T01:47:29;23.90;99.90
15343;DHT22;7771;48.478;8.936;2023-08-21T01:49:56;23.90;99.90
15343;DHT22;7771;48.478;8.936;2023-08-21T01:52:22;23.90;99.90
15343;DHT22;7771;48.478;8.936;2023-08-21T01:57:18;23.90;99.90
15343;DHT22;7771;48.478;8.936;2023-08-21T02:02:12;23.80;99.90
15343;DHT22;7771;48.478;8.936;2023-08-21T02:04:40;23.80;99.90
15343;DHT22;7771;48.478;8.936;2023-08-21T02:07:07;23.70;99.90
15343;DHT22;7771;48.478;8.936;2023-08-21T02:09:34;23.70;99.90
15343;DHT22;7771;48.478;8.936;2023-08-21T02:12:01;23.70;99.90
15343;DHT22;7771;48.478;8.936;2023-08-21T02:14:28;23.70;99.90
15343;DHT22;7771;48.478;8.936;2023-08-21T02:16:55;23.60;99.90
15343;DHT22;7771;48.478;8.936;2023-08-21T02:19:21;23.60;99.90
15343;DHT22;7771;48.478;8.936;2023-08-21T02:21:49;23.60;99.90
15343;DHT22;7771;48.478;8.936;2023-08-21T02:24:17;23.60;99.90
15343;DHT22;7771;48.478;8.936;2023-08-21T02:26:43;23.50;99.90
15343;DHT22;7771;48.478;8.936;2023-08-21T02:29:10;23.50;99.90
15343;DHT22;7771;48.478;8.936;2023-08-21T02:31:37;23.40;99.90
15343;DHT22;7771;48.478;8.936;2023-08-21T02:34:04;23.40;99.90
15343;DHT22;7771;48.478;8.936;2023-08-21T02:36:31;23.40;99.90
15343;DHT22;7771;48.478;8.936;2023-08-21T02:38:58;23.40;99.90
15343;DHT22;7771;48.478;8.936;2023-08-21T02:41:26;23.40;99.90
15343;DHT22;7771;48.478;8.936;2023-08-21T02:43:52;23.40;99.90
15343;DHT22;7771;48.478;8.936;2023-08-21T02:46:20;23.40;99.90
15343;DHT22;7771;48.478;8.936;2023-08-21T02:48:46;23.30;99.90
15343;DHT22;7771;48.478;8.936;2023-08-21T02:51:13;23.30;99.90
15343;DHT22;7771;48.478;8.936;2023-08-21T02:56:08;23.30;99.90
15343;DHT22;7771;48.478;8.936;2023-08-21T02:58:35;23.30;99.90
15343;DHT22;7771;48.478;8.936;2023-08-21T03:01:03;23.30;99.90
15343;DHT22;7771;48.478;8.936;2023-08-21T03:03:29;23.20;99.90
15343;DHT22;7771;48.478;8.936;2023-08-21T03:05:57;23.20;99.90
15343;DHT22;7771;48.478;8.936;2023-08-21T03:08:25;23.10;99.90
15343;DHT22;7771;48.478;8.936;2023-08-21T03:13:19;23.10;99.90
15343;DHT22;7771;48.478;8.936;2023-08-21T03:15:46;23.10;99.90
15343;DHT22;7771;48.478;8.936;2023-08-21T03:18:13;23.10;99.90
15343;DHT22;7771;48.478;8.936;2023-08-21T03:20:44;23.00;99.90
15343;DHT22;7771;48.478;8.936;2023-08-21T03:23:12;23.00;99.90
15343;DHT22;7771;48.478;8.936;2023-08-21T03:25:38;22.90;99.90
15343;DHT22;7771;48.478;8.936;2023-08-21T03:28:05;22.90;99.90
15343;DHT22;7771;48.478;8.936;2023-08-21T03:30:32;22.90;99.90
15343;DHT22;7771;48.478;8.936;2023-08-21T03:33:00;22.80;99.90
15343;DHT22;7771;48.478;8.936;2023-08-21T03:35:26;22.80;99.90
15343;DHT22;7771;48.478;8.936;2023-08-21T03:37:54;22.80;99.90
15343;DHT22;7771;48.478;8.936;2023-08-21T03:40:20;22.70;99.90
15343;DHT22;7771;48.478;8.936;2023-08-21T03:42:48;22.70;99.90
15343;DHT22;7771;48.478;8.936;2023-08-21T03:45:15;22.70;99.90
15343;DHT22;7771;48.478;8.936;2023-08-21T03:47:42;22.70;99.90
15343;DHT22;7771;48.478;8.936;2023-08-21T03:50:09;22.70;99.90
15343;DHT22;7771;48.478;8.936;2023-08-21T03:52:36;22.70;99.90
15343;DHT22;7771;48.478;8.936;2023-08-21T03:55:03;22.70;99.90
15343;DHT22;7771;48.478;8.936;2023-08-21T04:02:26;22.70;99.90
15343;DHT22;7771;48.478;8.936;2023-08-21T04:04:53;22.70;99.90
15343;DHT22;7771;48.478;8.936;2023-08-21T04:07:19;22.70;99.90
15343;DHT22;7771;48.478;8.936;2023-08-21T04:12:14;22.60;99.90
15343;DHT22;7771;48.478;8.936;2023-08-21T04:14:42;22.60;99.90
15343;DHT22;7771;48.478;8.936;2023-08-21T04:17:09;22.60;99.90
15343;DHT22;7771;48.478;8.936;2023-08-21T04:19:36;22.60;99.90
15343;DHT22;7771;48.478;8.936;2023-08-21T04:22:03;22.60;99.90
15343;DHT22;7771;48.478;8.936;2023-08-21T04:26:59;22.60;99.90
15343;DHT22;7771;48.478;8.936;2023-08-21T04:29:26;22.60;99.90
15343;DHT22;7771;48.478;8.936;2023-08-21T04:31:53;22.60;99.90
15343;DHT22;7771;48.478;8.936;2023-08-21T04:34:20;22.50;99.90
15343;DHT22;7771;48.478;8.936;2023-08-21T04:36:47;22.50;99.90
15343;DHT22;7771;48.478;8.936;2023-08-21T04:39:14;22.50;99.90
15343;DHT22;7771;48.478;8.936;2023-08-21T04:41:41;22.50;99.90
15343;DHT22;7771;48.478;8.936;2023-08-21T04:44:08;22.50;99.90
15343;DHT22;7771;48.478;8.936;2023-08-21T04:46:35;22.50;99.90
15343;DHT22;7771;48.478;8.936;2023-08-21T04:49:02;22.50;99.90
15343;DHT22;7771;48.478;8.936;2023-08-21T04:53:57;22.50;99.90
15343;DHT22;7771;48.478;8.936;2023-08-21T04:56:24;22.50;99.90
15343;DHT22;7771;48.478;8.936;2023-08-21T04:58:52;22.50;99.90
15343;DHT22;7771;48.478;8.936;2023-08-21T05:01:20;22.50;99.90
15343;DHT22;7771;48.478;8.936;2023-08-21T05:03:47;22.50;99.90
15343;DHT22;7771;48.478;8.936;2023-08-21T05:06:15;22.50;99.90
15343;DHT22;7771;48.478;8.936;2023-08-21T05:08:43;22.50;99.90
15343;DHT22;7771;48.478;8.936;2023-08-21T05:16:06;22.50;99.90
15343;DHT22;7771;48.478;8.936;2023-08-21T05:18:32;22.50;99.90
15343;DHT22;7771;48.478;8.936;2023-08-21T05:23:27;22.60;99.90
15343;DHT22;7771;48.478;8.936;2023-08-21T05:25:54;22.60;99.90
15343;DHT22;7771;48.478;8.936;2023-08-21T05:28:20;22.70;99.90
15343;DHT22;7771;48.478;8.936;2023-08-21T05:30:48;22.70;99.90
15343;DHT22;7771;48.478;8.936;2023-08-21T05:33:16;22.70;99.90
15343;DHT22;7771;48.478;8.936;2023-08-21T05:35:42;22.80;99.90
15343;DHT22;7771;48.478;8.936;2023-08-21T05:38:10;22.80;99.90
15343;DHT22;7771;48.478;8.936;2023-08-21T05:40:40;22.90;99.90
15343;DHT22;7771;48.478;8.936;2023-08-21T05:43:05;22.90;99.90
15343;DHT22;7771;48.478;8.936;2023-08-21T05:45:32;22.90;99.90
15343;DHT22;7771;48.478;8.936;2023-08-21T05:47:59;22.90;99.90
15343;DHT22;7771;48.478;8.936;2023-08-21T05:50:25;23.00;99.90
15343;DHT22;7771;48.478;8.936;2023-08-21T05:52:52;23.00;99.90
15343;DHT22;7771;48.478;8.936;2023-08-21T05:55:19;23.10;99.90
15343;DHT22;7771;48.478;8.936;2023-08-21T05:57:46;23.10;99.90
15343;DHT22;7771;48.478;8.936;2023-08-21T06:00:13;23.10;99.90
15343;DHT22;7771;48.478;8.936;2023-08-21T06:02:41;23.20;99.90
15343;DHT22;7771;48.478;8.936;2023-08-21T06:05:08;23.20;99.90
15343;DHT22;7771;48.478;8.936;2023-08-21T06:07:35;23.20;99.90
15343;DHT22;7771;48.478;8.936;2023-08-21T06:10:04;23.30;99.90
15343;DHT22;7771;48.478;8.936;2023-08-21T06:14:58;23.40;99.90
15343;DHT22;7771;48.478;8.936;2023-08-21T06:17:27;23.50;99.90
15343;DHT22;7771;48.478;8.936;2023-08-21T06:19:52;23.60;99.90
15343;DHT22;7771;48.478;8.936;2023-08-21T06:22:20;23.60;99.90
15343;DHT22;7771;48.478;8.936;2023-08-21T06:24:47;23.60;99.90
15343;DHT22;7771;48.478;8.936;2023-08-21T06:27:13;23.70;99.90
15343;DHT22;7771;48.478;8.936;2023-08-21T06:32:09;23.80;99.90
15343;DHT22;7771;48.478;8.936;2023-08-21T06:34:36;23.90;99.90
15343;DHT22;7771;48.478;8.936;2023-08-21T06:37:03;23.90;99.90
15343;DHT22;7771;48.478;8.936;2023-08-21T06:39:31;24.10;99.90
15343;DHT22;7771;48.478;8.936;2023-08-21T06:41:58;24.10;99.90
15343;DHT22;7771;48.478;8.936;2023-08-21T06:44:34;24.20;99.90
15343;DHT22;7771;48.478;8.936;2023-08-21T06:47:01;24.30;99.90
15343;DHT22;7771;48.478;8.936;2023-08-21T06:49:27;24.40;99.90
15343;DHT22;7771;48.478;8.936;2023-08-21T06:51:55;24.50;99.90
15343;DHT22;7771;48.478;8.936;2023-08-21T06:54:22;24.60;99.90
15343;DHT22;7771;48.478;8.936;2023-08-21T06:56:49;24.70;99.90
15343;DHT22;7771;48.478;8.936;2023-08-21T06:59:15;24.90;99.90
15343;DHT22;7771;48.478;8.936;2023-08-21T07:01:42;25.00;99.90
15343;DHT22;7771;48.478;8.936;2023-08-21T07:04:08;25.10;99.90
15343;DHT22;7771;48.478;8.936;2023-08-21T07:06:36;25.20;99.90
15343;DHT22;7771;48.478;8.936;2023-08-21T07:09:02;25.40;99.90
15343;DHT22;7771;48.478;8.936;2023-08-21T07:11:30;25.50;99.90
15343;DHT22;7771;48.478;8.936;2023-08-21T07:13:57;25.70;99.90
15343;DHT22;7771;48.478;8.936;2023-08-21T07:16:24;25.90;99.90
15343;DHT22;7771;48.478;8.936;2023-08-21T07:18:51;26.70;99.90
15343;DHT22;7771;48.478;8.936;2023-08-21T07:21:19;27.70;99.90
15343;DHT22;7771;48.478;8.936;2023-08-21T07:23:46;29.00;99.90
15343;DHT22;7771;48.478;8.936;2023-08-21T07:26:13;30.30;99.90
15343;DHT22;7771;48.478;8.936;2023-08-21T07:28:40;31.30;99.90
15343;DHT22;7771;48.478;8.936;2023-08-21T07:31:08;32.30;99.90
15343;DHT22;7771;48.478;8.936;2023-08-21T07:33:35;33.20;99.90
15343;DHT22;7771;48.478;8.936;2023-08-21T07:36:04;33.90;99.90
15343;DHT22;7771;48.478;8.936;2023-08-21T07:38:31;34.70;99.90
15343;DHT22;7771;48.478;8.936;2023-08-21T07:41:03;35.30;98.50
15343;DHT22;7771;48.478;8.936;2023-08-21T07:43:29;35.90;96.80
15343;DHT22;7771;48.478;8.936;2023-08-21T07:45:55;36.50;95.70
15343;DHT22;7771;48.478;8.936;2023-08-21T07:48:22;37.10;94.50
15343;DHT22;7771;48.478;8.936;2023-08-21T07:50:51;37.50;93.50
15343;DHT22;7771;48.478;8.936;2023-08-21T07:53:16;38.00;92.20
15343;DHT22;7771;48.478;8.936;2023-08-21T07:55:43;38.30;91.20
15343;DHT22;7771;48.478;8.936;2023-08-21T07:58:10;38.40;90.40
15343;DHT22;7771;48.478;8.936;2023-08-21T08:00:38;38.30;90.20
15343;DHT22;7771;48.478;8.936;2023-08-21T08:03:05;38.00;89.40
15343;DHT22;7771;48.478;8.936;2023-08-21T08:05:32;37.30;89.30
15343;DHT22;7771;48.478;8.936;2023-08-21T08:07:58;36.60;89.80
15343;DHT22;7771;48.478;8.936;2023-08-21T08:10:26;36.00;90.30
15343;DHT22;7771;48.478;8.936;2023-08-21T08:12:53;35.50;90.80
15343;DHT22;7771;48.478;8.936;2023-08-21T08:15:21;35.10;91.30
15343;DHT22;7771;48.478;8.936;2023-08-21T08:17:48;34.70;91.80
15343;DHT22;7771;48.478;8.936;2023-08-21T08:20:14;34.50;92.30
15343;DHT22;7771;48.478;8.936;2023-08-21T08:22:42;34.30;92.80
15343;DHT22;7771;48.478;8.936;2023-08-21T08:25:09;34.10;92.80
15343;DHT22;7771;48.478;8.936;2023-08-21T08:27:35;34.10;93.20
15343;DHT22;7771;48.478;8.936;2023-08-21T08:30:03;38.20;95.00
15343;DHT22;7771;48.478;8.936;2023-08-21T08:32:30;33.90;93.30
15343;DHT22;7771;48.478;8.936;2023-08-21T08:34:57;33.90;93.40
15343;DHT22;7771;48.478;8.936;2023-08-21T08:37:24;33.90;93.50
15343;DHT22;7771;48.478;8.936;2023-08-21T08:39:51;33.80;93.50
15343;DHT22;7771;48.478;8.936;2023-08-21T08:42:18;33.80;93.90
15343;DHT22;7771;48.478;8.936;2023-08-21T08:44:46;33.90;94.10
15343;DHT22;7771;48.478;8.936;2023-08-21T08:47:13;34.00;93.80
15343;DHT22;7771;48.478;8.936;2023-08-21T08:49:40;34.00;93.50
15343;DHT22;7771;48.478;8.936;2023-08-21T08:52:07;34.00;93.60
15343;DHT22;7771;48.478;8.936;2023-08-21T08:54:34;34.10;93.60
15343;DHT22;7771;48.478;8.936;2023-08-21T08:57:01;34.20;93.70
15343;DHT22;7771;48.478;8.936;2023-08-21T08:59:31;34.20;93.20
15343;DHT22;7771;48.478;8.936;2023-08-21T09:01:57;34.20;93.10
15343;DHT22;7771;48.478;8.936;2023-08-21T09:04:23;34.20;93.10
15343;DHT22;7771;48.478;8.936;2023-08-21T09:06:50;34.30;92.80
15343;DHT22;7771;48.478;8.936;2023-08-21T09:09:17;34.30;92.90
15343;DHT22;7771;48.478;8.936;2023-08-21T09:11:45;34.30;93.00
15343;DHT22;7771;48.478;8.936;2023-08-21T09:14:10;34.30;93.10
15343;DHT22;7771;48.478;8.936;2023-08-21T09:16:37;34.40;92.30
15343;DHT22;7771;48.478;8.936;2023-08-21T09:19:03;34.40;92.40
15343;DHT22;7771;48.478;8.936;2023-08-21T09:21:30;34.40;92.60
15343;DHT22;7771;48.478;8.936;2023-08-21T09:23:58;34.50;92.60
15343;DHT22;7771;48.478;8.936;2023-08-21T09:26:25;34.60;92.50
15343;DHT22;7771;48.478;8.936;2023-08-21T09:28:52;34.60;92.50
15343;DHT22;7771;48.478;8.936;2023-08-21T09:31:22;34.70;92.50
15343;DHT22;7771;48.478;8.936;2023-08-21T09:33:59;34.80;92.00
15343;DHT22;7771;48.478;8.936;2023-08-21T09:36:25;34.80;92.00
15343;DHT22;7771;48.478;8.936;2023-08-21T09:38:53;34.70;92.30
15343;DHT22;7771;48.478;8.936;2023-08-21T09:41:20;34.70;92.10
15343;DHT22;7771;48.478;8.936;2023-08-21T09:43:47;34.70;91.90
15343;DHT22;7771;48.478;8.936;2023-08-21T09:46:15;34.70;91.90
15343;DHT22;7771;48.478;8.936;2023-08-21T09:48:41;34.60;91.90
15343;DHT22;7771;48.478;8.936;2023-08-21T09:51:08;34.60;92.00
15343;DHT22;7771;48.478;8.936;2023-08-21T09:53:35;34.60;91.70
15343;DHT22;7771;48.478;8.936;2023-08-21T09:56:02;34.50;91.80
15343;DHT22;7771;48.478;8.936;2023-08-21T09:58:29;34.50;92.10
15343;DHT22;7771;48.478;8.936;2023-08-21T10:00:56;34.60;92.30
15343;DHT22;7771;48.478;8.936;2023-08-21T10:03:22;34.60;92.20
15343;DHT22;7771;48.478;8.936;2023-08-21T10:05:50;34.70;92.00
15343;DHT22;7771;48.478;8.936;2023-08-21T10:08:18;34.80;92.00
15343;DHT22;7771;48.478;8.936;2023-08-21T10:10:44;34.80;92.20
15343;DHT22;7771;48.478;8.936;2023-08-21T10:13:11;34.90;91.60
15343;DHT22;7771;48.478;8.936;2023-08-21T10:15:38;34.90;91.50
15343;DHT22;7771;48.478;8.936;2023-08-21T10:18:21;35.00;91.70
15343;DHT22;7771;48.478;8.936;2023-08-21T10:20:47;35.00;91.70
15343;DHT22;7771;48.478;8.936;2023-08-21T10:23:24;35.00;91.70
15343;DHT22;7771;48.478;8.936;2023-08-21T10:25:54;35.10;91.40
15343;DHT22;7771;48.478;8.936;2023-08-21T10:28:17;35.20;91.50
15343;DHT22;7771;48.478;8.936;2023-08-21T10:30:44;35.30;91.00
15343;DHT22;7771;48.478;8.936;2023-08-21T10:33:10;35.30;90.80
15343;DHT22;7771;48.478;8.936;2023-08-21T10:35:38;35.30;91.10
15343;DHT22;7771;48.478;8.936;2023-08-21T10:38:09;35.20;91.40
15343;DHT22;7771;48.478;8.936;2023-08-21T10:40:35;35.20;91.30
15343;DHT22;7771;48.478;8.936;2023-08-21T10:43:02;35.30;91.00
15343;DHT22;7771;48.478;8.936;2023-08-21T10:45:29;35.20;90.90
15343;DHT22;7771;48.478;8.936;2023-08-21T10:47:59;35.30;91.00
15343;DHT22;7771;48.478;8.936;2023-08-21T10:50:26;35.20;91.00
15343;DHT22;7771;48.478;8.936;2023-08-21T10:52:53;35.30;91.10
15343;DHT22;7771;48.478;8.936;2023-08-21T10:55:20;35.30;91.10
15343;DHT22;7771;48.478;8.936;2023-08-21T11:00:16;35.40;90.70
15343;DHT22;7771;48.478;8.936;2023-08-21T11:02:44;35.40;90.50
15343;DHT22;7771;48.478;8.936;2023-08-21T11:05:11;35.40;90.30
15343;DHT22;7771;48.478;8.936;2023-08-21T11:07:38;35.40;90.30
15343;DHT22;7771;48.478;8.936;2023-08-21T11:10:06;35.40;90.40
15343;DHT22;7771;48.478;8.936;2023-08-21T11:12:33;35.40;90.40
15343;DHT22;7771;48.478;8.936;2023-08-21T11:15:00;35.40;90.70
15343;DHT22;7771;48.478;8.936;2023-08-21T11:17:27;35.50;91.10
15343;DHT22;7771;48.478;8.936;2023-08-21T11:19:55;35.60;90.70
15343;DHT22;7771;48.478;8.936;2023-08-21T11:22:28;35.50;90.40
15343;DHT22;7771;48.478;8.936;2023-08-21T11:24:48;35.40;90.50
15343;DHT22;7771;48.478;8.936;2023-08-21T11:27:16;35.30;90.50
15343;DHT22;7771;48.478;8.936;2023-08-21T11:29:45;35.10;90.30
15343;DHT22;7771;48.478;8.936;2023-08-21T11:32:17;34.90;90.20
15343;DHT22;7771;48.478;8.936;2023-08-21T11:34:58;34.80;90.30
15343;DHT22;7771;48.478;8.936;2023-08-21T11:37:25;34.70;90.50
15343;DHT22;7771;48.478;8.936;2023-08-21T11:39:53;34.60;90.60
15343;DHT22;7771;48.478;8.936;2023-08-21T11:42:20;34.40;90.80
15343;DHT22;7771;48.478;8.936;2023-08-21T11:44:49;34.30;91.10
15343;DHT22;7771;48.478;8.936;2023-08-21T11:47:15;34.40;91.30
15343;DHT22;7771;48.478;8.936;2023-08-21T11:49:41;34.40;91.30
15343;DHT22;7771;48.478;8.936;2023-08-21T11:52:07;34.60;91.00
15343;DHT22;7771;48.478;8.936;2023-08-21T11:54:35;34.80;90.60
15343;DHT22;7771;48.478;8.936;2023-08-21T11:57:05;35.00;90.30
15343;DHT22;7771;48.478;8.936;2023-08-21T11:59:31;35.20;90.10
15343;DHT22;7771;48.478;8.936;2023-08-21T12:01:58;35.30;89.70
15343;DHT22;7771;48.478;8.936;2023-08-21T12:04:25;35.50;88.90
15343;DHT22;7771;48.478;8.936;2023-08-21T12:06:52;35.60;88.20
15343;DHT22;7771;48.478;8.936;2023-08-21T12:09:18;35.60;87.90
15343;DHT22;7771;48.478;8.936;2023-08-21T12:11:45;35.60;88.10
15343;DHT22;7771;48.478;8.936;2023-08-21T12:14:12;35.60;87.90
15343;DHT22;7771;48.478;8.936;2023-08-21T12:16:39;35.70;88.40
15343;DHT22;7771;48.478;8.936;2023-08-21T12:19:06;35.80;87.50
15343;DHT22;7771;48.478;8.936;2023-08-21T12:21:33;35.90;86.30
15343;DHT22;7771;48.478;8.936;2023-08-21T12:23:59;35.90;86.40
15343;DHT22;7771;48.478;8.936;2023-08-21T12:26:26;36.00;86.20
15343;DHT22;7771;48.478;8.936;2023-08-21T12:28:52;36.10;86.00
15343;DHT22;7771;48.478;8.936;2023-08-21T12:31:19;36.20;86.20
15343;DHT22;7771;48.478;8.936;2023-08-21T12:33:46;36.30;85.90
15343;DHT22;7771;48.478;8.936;2023-08-21T12:36:13;36.40;85.00
15343;DHT22;7771;48.478;8.936;2023-08-21T12:38:40;36.60;84.30
15343;DHT22;7771;48.478;8.936;2023-08-21T12:41:06;36.70;83.60
15343;DHT22;7771;48.478;8.936;2023-08-21T12:43:33;36.70;83.20
15343;DHT22;7771;48.478;8.936;2023-08-21T12:45:59;36.70;82.80
15343;DHT22;7771;48.478;8.936;2023-08-21T12:48:27;36.70;82.40
15343;DHT22;7771;48.478;8.936;2023-08-21T12:50:53;36.60;82.10
15343;DHT22;7771;48.478;8.936;2023-08-21T12:53:21;36.60;81.80
15343;DHT22;7771;48.478;8.936;2023-08-21T12:55:48;36.60;81.90
15343;DHT22;7771;48.478;8.936;2023-08-21T12:58:15;36.40;82.00
15343;DHT22;7771;48.478;8.936;2023-08-21T13:00:41;36.30;82.30
15343;DHT22;7771;48.478;8.936;2023-08-21T13:03:08;36.30;81.90
15343;DHT22;7771;48.478;8.936;2023-08-21T13:05:35;36.30;81.60
15343;DHT22;7771;48.478;8.936;2023-08-21T13:08:02;36.30;81.50
15343;DHT22;7771;48.478;8.936;2023-08-21T13:10:30;36.20;81.60
15343;DHT22;7771;48.478;8.936;2023-08-21T13:12:57;36.10;81.20
15343;DHT22;7771;48.478;8.936;2023-08-21T13:15:24;36.10;81.50
15343;DHT22;7771;48.478;8.936;2023-08-21T13:17:50;36.00;81.60
15343;DHT22;7771;48.478;8.936;2023-08-21T13:20:18;35.90;81.60
15343;DHT22;7771;48.478;8.936;2023-08-21T13:22:47;35.90;81.90
15343;DHT22;7771;48.478;8.936;2023-08-21T13:25:13;35.80;81.10
15343;DHT22;7771;48.478;8.936;2023-08-21T13:27:40;35.80;81.20
15343;DHT22;7771;48.478;8.936;2023-08-21T13:30:07;35.70;81.40
15343;DHT22;7771;48.478;8.936;2023-08-21T13:32:35;35.70;81.00
15343;DHT22;7771;48.478;8.936;2023-08-21T13:35:01;35.70;81.00
15343;DHT22;7771;48.478;8.936;2023-08-21T13:37:28;35.70;81.30
15343;DHT22;7771;48.478;8.936;2023-08-21T13:39:55;35.80;80.90
15343;DHT22;7771;48.478;8.936;2023-08-21T13:42:22;35.90;80.70
15343;DHT22;7771;48.478;8.936;2023-08-21T13:44:49;36.00;80.30
15343;DHT22;7771;48.478;8.936;2023-08-21T13:47:15;36.00;80.70
15343;DHT22;7771;48.478;8.936;2023-08-21T13:49:43;36.10;80.80
15343;DHT22;7771;48.478;8.936;2023-08-21T13:52:10;36.20;79.80
15343;DHT22;7771;48.478;8.936;2023-08-21T13:54:36;36.20;79.70
15343;DHT22;7771;48.478;8.936;2023-08-21T13:57:03;36.30;79.60
15343;DHT22;7771;48.478;8.936;2023-08-21T13:59:30;36.30;79.50
15343;DHT22;7771;48.478;8.936;2023-08-21T14:01:56;36.30;79.70
15343;DHT22;7771;48.478;8.936;2023-08-21T14:04:23;36.30;80.00
15343;DHT22;7771;48.478;8.936;2023-08-21T14:06:50;36.30;79.60
15343;DHT22;7771;48.478;8.936;2023-08-21T14:09:17;36.20;79.40
15343;DHT22;7771;48.478;8.936;2023-08-21T14:11:44;36.10;79.30
15343;DHT22;7771;48.478;8.936;2023-08-21T14:14:11;36.10;79.40
15343;DHT22;7771;48.478;8.936;2023-08-21T14:16:37;36.10;79.50
15343;DHT22;7771;48.478;8.936;2023-08-21T14:19:04;35.90;79.60
15343;DHT22;7771;48.478;8.936;2023-08-21T14:21:31;35.90;79.60
15343;DHT22;7771;48.478;8.936;2023-08-21T14:23:58;35.80;79.60
15343;DHT22;7771;48.478;8.936;2023-08-21T14:26:25;35.70;79.90
15343;DHT22;7771;48.478;8.936;2023-08-21T14:28:52;35.50;80.10
15343;DHT22;7771;48.478;8.936;2023-08-21T14:31:19;35.40;80.40
15343;DHT22;7771;48.478;8.936;2023-08-21T14:33:46;35.40;81.00
15343;DHT22;7771;48.478;8.936;2023-08-21T14:36:13;35.30;82.10
15343;DHT22;7771;48.478;8.936;2023-08-21T14:38:40;35.20;81.10
15343;DHT22;7771;48.478;8.936;2023-08-21T14:41:07;35.20;80.60
15343;DHT22;7771;48.478;8.936;2023-08-21T14:43:34;35.10;81.10
15343;DHT22;7771;48.478;8.936;2023-08-21T14:46:02;35.10;81.20
15343;DHT22;7771;48.478;8.936;2023-08-21T14:48:29;34.90;81.60
15343;DHT22;7771;48.478;8.936;2023-08-21T14:50:56;34.90;81.40
15343;DHT22;7771;48.478;8.936;2023-08-21T14:53:23;34.90;81.50
15343;DHT22;7771;48.478;8.936;2023-08-21T14:55:50;34.90;81.70
15343;DHT22;7771;48.478;8.936;2023-08-21T14:58:17;34.90;82.60
15343;DHT22;7771;48.478;8.936;2023-08-21T15:00:45;35.00;82.20
15343;DHT22;7771;48.478;8.936;2023-08-21T15:03:12;35.00;81.70
15343;DHT22;7771;48.478;8.936;2023-08-21T15:05:38;35.00;81.70
15343;DHT22;7771;48.478;8.936;2023-08-21T15:08:06;35.00;82.20
15343;DHT22;7771;48.478;8.936;2023-08-21T15:10:33;35.00;81.00
15343;DHT22;7771;48.478;8.936;2023-08-21T15:13:00;35.00;81.30
15343;DHT22;7771;48.478;8.936;2023-08-21T15:15:26;35.10;81.20
15343;DHT22;7771;48.478;8.936;2023-08-21T15:17:53;35.10;81.50
15343;DHT22;7771;48.478;8.936;2023-08-21T15:20:20;35.10;83.00
15343;DHT22;7771;48.478;8.936;2023-08-21T15:22:47;35.10;83.40
15343;DHT22;7771;48.478;8.936;2023-08-21T15:25:14;35.00;83.30
15343;DHT22;7771;48.478;8.936;2023-08-21T15:27:41;35.00;83.60
15343;DHT22;7771;48.478;8.936;2023-08-21T15:30:09;34.90;83.10
15343;DHT22;7771;48.478;8.936;2023-08-21T15:32:35;34.80;84.30
15343;DHT22;7771;48.478;8.936;2023-08-21T15:35:02;34.60;85.20
15343;DHT22;7771;48.478;8.936;2023-08-21T15:37:29;34.60;85.40
15343;DHT22;7771;48.478;8.936;2023-08-21T15:39:55;34.60;85.40
15343;DHT22;7771;48.478;8.936;2023-08-21T15:42:22;34.50;85.70
15343;DHT22;7771;48.478;8.936;2023-08-21T15:44:49;34.50;85.80
15343;DHT22;7771;48.478;8.936;2023-08-21T15:47:17;34.60;86.10
15343;DHT22;7771;48.478;8.936;2023-08-21T15:49:46;34.80;85.60
15343;DHT22;7771;48.478;8.936;2023-08-21T15:52:11;34.80;84.90
15343;DHT22;7771;48.478;8.936;2023-08-21T15:54:38;34.60;84.50
15343;DHT22;7771;48.478;8.936;2023-08-21T15:57:05;34.50;86.00
15343;DHT22;7771;48.478;8.936;2023-08-21T15:59:33;34.30;85.90
15343;DHT22;7771;48.478;8.936;2023-08-21T16:02:00;34.20;85.70
15343;DHT22;7771;48.478;8.936;2023-08-21T16:04:26;34.10;85.80
15343;DHT22;7771;48.478;8.936;2023-08-21T16:06:54;34.10;86.50
15343;DHT22;7771;48.478;8.936;2023-08-21T16:11:48;33.80;86.70
15343;DHT22;7771;48.478;8.936;2023-08-21T16:14:16;33.70;87.40
15343;DHT22;7771;48.478;8.936;2023-08-21T16:16:43;33.60;86.90
15343;DHT22;7771;48.478;8.936;2023-08-21T16:19:10;33.60;86.60
15343;DHT22;7771;48.478;8.936;2023-08-21T16:21:37;33.50;87.50
15343;DHT22;7771;48.478;8.936;2023-08-21T16:26:33;33.30;87.90
15343;DHT22;7771;48.478;8.936;2023-08-21T16:28:59;33.30;87.90
15343;DHT22;7771;48.478;8.936;2023-08-21T16:31:27;33.30;88.00
15343;DHT22;7771;48.478;8.936;2023-08-21T16:33:54;33.20;87.80
15343;DHT22;7771;48.478;8.936;2023-08-21T16:38:49;33.10;87.90
15343;DHT22;7771;48.478;8.936;2023-08-21T16:41:16;33.10;88.80